Alda, Nebraska
Current Conditions -  °F | °C
As of 3:53 AM on Thursday 27 Nov 2014 (Local Time) from KGRI Reporting Station
Overcast Overcast  
Wind Chill: -8°   Ceiling: 9000
Heat Index: -8°   Visibility: 10mi
Dew Point: -11°   Wind: 3mph
Humidity: 81%   Direction: 90°E
Pressure: 30.42"   Gusts: NA
Location:  40.87°N, 98.47°W
Report Text: KGRI 270953Z AUTO 09003KT 10SM OVC090 M08/M11 A3042 RMK AO2 SLP332 T10781106 TSNO
Loading
Personal Weather Stations






























Interactive Weather Map New forecast layout! Learn more

10-Day Weather Forecast

Advertisements
Track Severe Weather on mobile